Terminal Aerodrome Forecast
Issued by NWS Milwaukee/Sullivan, WI

Home | Current Version | Previous Version | Text Only | Print | Product List | Glossary On
Versions: 1 2 3 4 5 6 7 8 9 10 11 12 13 14 15 16 17 18 19 20 21 22 23 24 25 26 27 28 29 30 31
000
FTUS43 KMKX 272320
TAFMKE
TAF
KMKE 272320Z 2800/2906 31007KT P6SM -SHRA SCT025 OVC045
     FM280400 32004KT P6SM -SHRA BKN015 OVC035
     FM281100 33005KT P6SM VCSH SCT008 OVC015
     FM281500 36008KT P6SM VCSH SCT015 OVC025
     FM281900 02013G18KT P6SM SCT020 BKN045
     FM282100 02015G23KT P6SM SCT020 BKN070
     FM290100 01011G19KT P6SM SCT030 BKN070
     FM290500 02010G18KT P6SM FEW030 SCT060=

USA.gov is the U.S. government's official web portal to all federal, state and local government web resources and services.